^^
Meteo Knjazevac Station Historical Data
Daily Summary for May 23, 2021 Units:  English    Metric   Both
Daily Weekly Monthly Yearly Custom
  High: Low: Average:
Temperature: 59.7 °F 56.3 °F 58.1 °F
Dew Point: 55.1 °F 53 °F 54 °F
Humidity: 95% 80% 86%
Wind Speed: 5mph 0mph 1.4mph
Wind Gust: 8mph - -
Wind- - SSW
Pressure: 30.19 in 30.13 in -
Precipitation: 0.01 in    
Historical Graphs
 
 
Tabular Data for May 23, 2021
Time Temperature Dew Point Pressure Wind Wind Speed Wind Gust Humidity Rainfall Rate (Hourly) solar Conditions
00:00 59.5 °F 53.4 °F 30.13 in NE 2 mph 6 mph 80% 0.00 in 0 W/m2
00:10 59.7 °F 53.5 °F 30.13 in SE 3 mph 6 mph 80% 0.00 in 0 W/m2
00:20 59.7 °F 53.5 °F 30.13 in SE 3 mph 5 mph 80% 0.00 in 0 W/m2
00:30 59.5 °F 53.4 °F 30.13 in Calm   5 mph 80% 0.00 in 0 W/m2
00:40 59.4 °F 53.2 °F 30.13 in ESE 2 mph 6 mph 80% 0.00 in 0 W/m2
00:50 59.4 °F 53.5 °F 30.14 in NE 5 mph 8 mph 81% 0.00 in 0 W/m2
01:00 59.4 °F 53.2 °F 30.14 in NE 2 mph 8 mph 80% 0.00 in 0 W/m2
01:10 59.2 °F 53.4 °F 30.14 in Calm   5 mph 81% 0.00 in 0 W/m2
01:20 58.8 °F 53.7 °F 30.14 in NNW 1 mph 3 mph 83% 0.00 in 0 W/m2
01:30 58.5 °F 53.3 °F 30.14 in NNE 1 mph 4 mph 83% 0.00 in 0 W/m2
01:40 58.8 °F 53 °F 30.14 in SE 2 mph 4 mph 81% 0.00 in 0 W/m2
01:50 58.6 °F 53.5 °F 30.15 in NNW 1 mph 3 mph 83% 0.00 in 0 W/m2
02:00 58.8 °F 53.7 °F 30.15 in East 1 mph 4 mph 83% 0.00 in 0 W/m2
02:10 59 °F 53.2 °F 30.15 in SW 1 mph 4 mph 81% 0.00 in 0 W/m2
02:20 59 °F 53.8 °F 30.15 in NW 2 mph 3 mph 83% 0.00 in 0 W/m2
02:30 58.8 °F 53.7 °F 30.15 in West 1 mph 4 mph 83% 0.00 in 0 W/m2
02:40 58.6 °F 53.8 °F 30.15 in West 1 mph 3 mph 84% 0.00 in 0 W/m2
02:50 58.5 °F 53.6 °F 30.15 in SW 1 mph 3 mph 84% 0.00 in 0 W/m2
03:00 58.5 °F 53.6 °F 30.15 in WSW 1 mph 3 mph 84% 0.00 in 0 W/m2
03:10 58.5 °F 54 °F 30.15 in West 1 mph 3 mph 85% 0.00 in 0 W/m2
03:20 58.3 °F 53.8 °F 30.15 in West 2 mph 4 mph 85% 0.00 in 0 W/m2
03:30 58.3 °F 53.8 °F 30.15 in WSW 1 mph 5 mph 85% 0.00 in 0 W/m2
03:40 58.3 °F 53.8 °F 30.15 in WSW 2 mph 3 mph 85% 0.00 in 0 W/m2
03:50 58.3 °F 53.8 °F 30.15 in SW 1 mph 2 mph 85% 0.00 in 0 W/m2
04:00 58.1 °F 53.6 °F 30.15 in SSW 2 mph 3 mph 85% 0.00 in 0 W/m2
04:10 57.9 °F 53.8 °F 30.15 in SW 1 mph 3 mph 86% 0.00 in 0 W/m2
04:20 57.9 °F 53.8 °F 30.15 in West 1 mph 3 mph 86% 0.00 in 0 W/m2
04:30 57.7 °F 54.2 °F 30.16 in WSW 2 mph 3 mph 88% 0.00 in 0 W/m2
04:40 57.7 °F 54.2 °F 30.16 in West 2 mph 4 mph 88% 0.00 in 0 W/m2
04:50 57.6 °F 54 °F 30.16 in West 2 mph 4 mph 88% 0.00 in 0 W/m2
05:00 57.6 °F 54.3 °F 30.17 in Calm   4 mph 89% 0.00 in 0 W/m2
05:10 57.6 °F 54.3 °F 30.17 in WNW 1 mph 2 mph 89% 0.00 in 0 W/m2
05:20 57.6 °F 54.6 °F 30.17 in West 1 mph 3 mph 90% 0.00 in 0 W/m2
05:30 57.4 °F 54.5 °F 30.17 in Calm   2 mph 90% 0.00 in 0 W/m2
05:40 57.4 °F 54.8 °F 30.17 in Calm   2 mph 91% 0.00 in 0 W/m2
05:50 57.2 °F 54.6 °F 30.17 in West 1 mph 2 mph 91% 0.00 in 0 W/m2
06:00 57.2 °F 54.6 °F 30.17 in SSW 1 mph 2 mph 91% 0.00 in 0 W/m2
06:10 56.8 °F 54.8 °F 30.17 in SSE 2 mph 5 mph 93% 0.00 in 0 W/m2
06:20 56.7 °F 55 °F 30.17 in SSE 1 mph 4 mph 94% 0.00 in 0 W/m2
06:30 56.7 °F 55 °F 30.18 in West 1 mph 2 mph 94% 0.00 in 0 W/m2
06:40 56.5 °F 54.8 °F 30.18 in Calm   2 mph 94% 0.00 in 0 W/m2
06:50 56.5 °F 55.1 °F 30.18 in NNE 2 mph 4 mph 95% 0.00 in 0 W/m2
07:00 56.5 °F 55.1 °F 30.18 in NE 2 mph 3 mph 95% 0.00 in 0 W/m2
07:10 56.3 °F 54.9 °F 30.19 in NE 2 mph 5 mph 95% 0.00 in 2 W/m2
Knjazevac, Serbia
Compliments of Weather Underground - 2 mb